createdAt,value
2023-04-06T00:02:04.839Z,22.12
2023-04-06T00:04:32.630Z,22.16
2023-04-06T00:07:00.624Z,22.14
2023-04-06T00:09:29.942Z,22.02
2023-04-06T00:11:58.754Z,21.92
2023-04-06T00:14:26.611Z,22.09
2023-04-06T00:16:54.427Z,22.18
2023-04-06T00:19:22.409Z,22.19
2023-04-06T00:21:50.255Z,22.24
2023-04-06T00:24:18.049Z,22.11
2023-04-06T00:26:47.187Z,22.06
2023-04-06T00:29:14.998Z,22.03
2023-04-06T00:31:42.813Z,22.00
2023-04-06T00:34:11.778Z,21.56
2023-04-06T00:36:39.524Z,21.53
2023-04-06T00:39:07.650Z,21.96
2023-04-06T00:41:35.706Z,22.00
2023-04-06T00:44:04.906Z,22.13
2023-04-06T00:46:32.813Z,21.83
2023-04-06T00:49:00.646Z,21.46
2023-04-06T00:51:28.615Z,21.67
2023-04-06T00:53:56.407Z,21.68
2023-04-06T00:56:24.676Z,21.71
2023-04-06T00:58:52.756Z,22.00
2023-04-06T01:01:22.090Z,22.06
2023-04-06T01:03:51.320Z,22.00
2023-04-06T01:06:19.203Z,21.98
2023-04-06T01:08:47.118Z,21.91
2023-04-06T01:11:14.899Z,21.70
2023-04-06T01:13:42.688Z,21.92
2023-04-06T01:16:10.891Z,22.03
2023-04-06T01:18:40.609Z,22.02
2023-04-06T01:21:09.663Z,22.03
2023-04-06T01:23:38.863Z,22.05
2023-04-06T01:26:06.848Z,22.23
2023-04-06T01:28:34.673Z,22.27
2023-04-06T01:31:02.538Z,22.24
2023-04-06T01:33:30.456Z,22.31
2023-04-06T01:35:58.389Z,22.09
2023-04-06T01:38:26.675Z,22.13
2023-04-06T01:40:56.014Z,22.11
2023-04-06T01:43:23.932Z,22.26
2023-04-06T01:45:52.019Z,21.95
2023-04-06T01:48:19.810Z,21.66
2023-04-06T01:50:47.618Z,21.73
2023-04-06T01:53:15.531Z,21.52
2023-04-06T01:55:43.317Z,21.69
2023-04-06T01:58:12.440Z,21.63
2023-04-06T02:00:40.374Z,21.71
2023-04-06T02:03:08.194Z,21.78
2023-04-06T02:05:38.819Z,21.82
2023-04-06T02:08:07.012Z,21.97
2023-04-06T02:10:35.358Z,22.08
2023-04-06T02:13:03.341Z,21.98
2023-04-06T02:15:32.484Z,22.03
2023-04-06T02:18:01.708Z,22.05
2023-04-06T02:20:29.643Z,21.77
2023-04-06T02:22:58.892Z,21.88
2023-04-06T02:25:27.467Z,22.03
2023-04-06T02:27:55.306Z,22.04
2023-04-06T02:30:23.076Z,21.61
2023-04-06T02:32:52.361Z,21.41
2023-04-06T02:35:20.556Z,21.89
2023-04-06T02:37:48.407Z,21.82
2023-04-06T02:40:16.401Z,21.88
2023-04-06T02:42:44.235Z,21.98
2023-04-06T02:45:12.280Z,21.87
2023-04-06T02:47:40.174Z,21.77
2023-04-06T02:50:10.149Z,21.71
2023-04-06T02:52:37.958Z,21.74
2023-04-06T02:55:08.478Z,21.48
2023-04-06T02:57:36.291Z,21.45
2023-04-06T03:00:04.485Z,21.15
2023-04-06T03:02:32.266Z,21.29
2023-04-06T03:05:00.041Z,21.41
2023-04-06T03:07:29.307Z,21.66
2023-04-06T03:09:57.181Z,21.88
2023-04-06T03:12:25.122Z,21.76
2023-04-06T03:14:53.060Z,21.71
2023-04-06T03:17:20.861Z,21.71
2023-04-06T03:19:48.579Z,21.16
2023-04-06T03:22:16.637Z,21.42
2023-04-06T03:24:45.830Z,21.42
2023-04-06T03:27:13.707Z,21.17
2023-04-06T03:29:41.497Z,21.21
2023-04-06T03:32:11.067Z,21.58
2023-04-06T03:34:40.386Z,21.40
2023-04-06T03:37:10.636Z,20.94
2023-04-06T03:39:38.796Z,20.67
2023-04-06T03:42:08.039Z,20.90
2023-04-06T03:44:36.008Z,20.78
2023-04-06T03:47:03.995Z,20.93
2023-04-06T03:49:31.823Z,21.35
2023-04-06T03:51:59.610Z,21.64
2023-04-06T03:54:27.369Z,21.87
2023-04-06T03:56:56.055Z,21.87
2023-04-06T03:59:25.517Z,21.89
2023-04-06T04:01:53.356Z,21.59
2023-04-06T04:04:21.288Z,21.68
2023-04-06T04:06:49.179Z,21.70
2023-04-06T04:09:16.969Z,21.50
2023-04-06T04:11:44.720Z,21.50
2023-04-06T04:14:12.462Z,21.54
2023-04-06T04:16:42.734Z,21.35
2023-04-06T04:19:11.160Z,21.21
2023-04-06T04:21:45.096Z,21.17
2023-04-06T04:24:12.941Z,21.16
2023-04-06T04:26:41.900Z,21.32
2023-04-06T04:29:09.967Z,20.79
2023-04-06T04:31:38.034Z,20.95
2023-04-06T04:34:07.884Z,20.23
2023-04-06T04:36:35.757Z,20.86
2023-04-06T04:39:03.668Z,20.42
2023-04-06T04:41:31.868Z,20.87
2023-04-06T04:43:59.698Z,20.83
2023-04-06T04:46:27.556Z,20.80
2023-04-06T04:48:55.474Z,20.88
2023-04-06T04:51:25.624Z,20.70
2023-04-06T04:53:53.524Z,20.28
2023-04-06T04:56:21.285Z,20.17
2023-04-06T04:58:49.021Z,20.29
2023-04-06T05:01:16.874Z,19.83
2023-04-06T05:03:44.716Z,20.38
2023-04-06T05:06:13.531Z,20.59
2023-04-06T05:08:43.120Z,20.93
2023-04-06T05:11:11.195Z,20.61
2023-04-06T05:13:39.269Z,21.20
2023-04-06T05:16:07.858Z,21.17
2023-04-06T05:18:35.853Z,20.73
2023-04-06T05:21:03.695Z,21.14
2023-04-06T05:23:31.484Z,21.01
2023-04-06T05:26:01.092Z,21.18
2023-04-06T05:28:28.869Z,21.33
2023-04-06T05:30:57.821Z,21.21
2023-04-06T05:33:26.127Z,21.31
2023-04-06T05:35:53.987Z,21.66
2023-04-06T05:38:22.166Z,21.05
2023-04-06T05:40:50.073Z,21.01
2023-04-06T05:43:21.091Z,20.81
2023-04-06T05:45:50.246Z,21.12
2023-04-06T05:48:18.053Z,20.81
2023-04-06T05:50:50.482Z,21.11
2023-04-06T05:53:18.294Z,21.14
2023-04-06T05:55:46.064Z,21.21
2023-04-06T05:58:13.852Z,21.05
2023-04-06T06:00:43.572Z,20.94
2023-04-06T06:03:12.027Z,20.44
2023-04-06T06:05:39.995Z,21.06
2023-04-06T06:08:08.006Z,20.51
2023-04-06T06:10:35.760Z,20.72
2023-04-06T06:13:03.594Z,21.31
2023-04-06T06:15:31.533Z,20.98
2023-04-06T06:18:01.385Z,21.73
2023-04-06T06:20:29.341Z,21.36
2023-04-06T06:22:57.145Z,21.49
2023-04-06T06:25:25.121Z,21.35
2023-04-06T06:27:52.886Z,21.09
2023-04-06T06:30:23.053Z,21.17
2023-04-06T06:32:51.987Z,21.50
2023-04-06T06:35:21.282Z,21.80
2023-04-06T06:37:49.187Z,21.26
2023-04-06T06:40:18.940Z,21.64
2023-04-06T06:42:46.800Z,21.46
2023-04-06T06:45:14.656Z,21.59
2023-04-06T06:47:42.777Z,21.29
2023-04-06T06:50:10.984Z,21.66
2023-04-06T06:52:40.778Z,21.89
2023-04-06T06:55:09.808Z,21.45
2023-04-06T06:57:37.667Z,21.04
2023-04-06T07:00:06.419Z,20.73
2023-04-06T07:02:34.297Z,21.35
2023-04-06T07:05:04.411Z,20.50
2023-04-06T07:07:35.871Z,20.79
2023-04-06T07:10:05.586Z,20.35
2023-04-06T07:12:35.865Z,21.33
2023-04-06T07:15:03.846Z,21.93
2023-04-06T07:17:31.680Z,21.56
2023-04-06T07:19:59.442Z,20.87
2023-04-06T07:22:27.367Z,22.34
2023-04-06T07:24:55.827Z,22.06
2023-04-06T07:27:25.001Z,21.34
2023-04-06T07:29:52.797Z,20.34
2023-04-06T07:32:20.674Z,20.32
2023-04-06T07:34:48.464Z,20.48
2023-04-06T07:37:16.309Z,21.07
2023-04-06T07:39:44.068Z,21.15
2023-04-06T07:42:12.436Z,21.97
2023-04-06T07:44:41.646Z,21.98
2023-04-06T07:47:09.461Z,21.60
2023-04-06T07:49:37.263Z,21.32
2023-04-06T07:52:05.463Z,20.81
2023-04-06T07:54:33.355Z,20.96
2023-04-06T07:57:01.105Z,20.96
2023-04-06T07:59:28.943Z,20.35
2023-04-06T08:01:58.087Z,20.24
2023-04-06T08:04:26.034Z,20.37
2023-04-06T08:06:53.883Z,19.86
2023-04-06T08:09:21.698Z,20.66
2023-04-06T08:11:49.724Z,21.14
2023-04-06T08:14:17.790Z,20.86
2023-04-06T08:16:45.648Z,21.24
2023-04-06T08:19:18.103Z,21.48
2023-04-06T08:21:46.796Z,22.12
2023-04-06T08:24:14.665Z,22.46
2023-04-06T08:26:43.315Z,22.93
2023-04-06T08:29:11.282Z,23.09
2023-04-06T08:31:39.318Z,23.40
2023-04-06T08:34:09.515Z,23.56
2023-04-06T08:36:39.960Z,23.37
2023-04-06T08:39:07.777Z,23.26
2023-04-06T08:41:36.621Z,22.21
2023-04-06T08:44:05.910Z,23.06
2023-04-06T08:46:33.943Z,22.75
2023-04-06T08:49:03.361Z,22.06
2023-04-06T08:51:32.099Z,22.21
2023-04-06T08:54:02.160Z,22.39
2023-04-06T08:56:30.484Z,22.55
2023-04-06T08:58:59.219Z,22.96
2023-04-06T09:01:28.974Z,22.93
2023-04-06T09:03:59.762Z,22.92
2023-04-06T09:06:28.786Z,23.79
2023-04-06T09:08:57.936Z,23.17
2023-04-06T09:11:27.329Z,22.74
2023-04-06T09:13:57.135Z,22.93
2023-04-06T09:16:25.492Z,23.01
2023-04-06T09:18:53.395Z,23.21
2023-04-06T09:21:25.337Z,22.80
2023-04-06T09:24:01.606Z,23.13
2023-04-06T09:26:31.714Z,23.73
2023-04-06T09:29:02.090Z,24.75
2023-04-06T09:31:31.544Z,23.86
2023-04-06T09:33:59.509Z,22.11
2023-04-06T09:36:34.335Z,23.00
2023-04-06T09:39:04.710Z,23.18
2023-04-06T09:41:35.331Z,22.77
2023-04-06T09:44:07.639Z,22.00
2023-04-06T09:46:50.626Z,22.20
2023-04-06T09:49:24.835Z,22.10
2023-04-06T09:51:58.068Z,22.02
2023-04-06T09:54:30.743Z,21.21
2023-04-06T09:57:06.419Z,22.12
2023-04-06T09:59:44.237Z,21.70
2023-04-06T10:02:32.113Z,22.84
2023-04-06T10:05:07.730Z,22.74
2023-04-06T10:07:38.771Z,23.07
2023-04-06T10:10:13.598Z,21.79
2023-04-06T10:12:43.783Z,22.44
2023-04-06T10:15:12.654Z,22.65
2023-04-06T10:17:40.532Z,23.02
2023-04-06T10:20:13.504Z,23.45
2023-04-06T10:22:51.677Z,23.42
2023-04-06T10:25:19.457Z,23.78
2023-04-06T10:27:48.734Z,24.23
2023-04-06T10:30:18.417Z,23.82
2023-04-06T10:32:48.159Z,24.29
2023-04-06T10:35:17.854Z,24.27
2023-04-06T10:37:51.736Z,24.54
2023-04-06T10:40:26.640Z,24.75
2023-04-06T10:42:56.495Z,24.36
2023-04-06T10:45:25.838Z,24.67
2023-04-06T10:47:55.644Z,24.70
2023-04-06T10:50:24.374Z,24.31
2023-04-06T10:53:01.656Z,23.94
2023-04-06T10:55:30.415Z,24.55
2023-04-06T10:57:59.600Z,24.50
2023-04-06T11:00:36.076Z,24.93
2023-04-06T11:03:11.226Z,24.63
2023-04-06T11:05:39.108Z,24.55
2023-04-06T11:08:07.559Z,23.79
2023-04-06T11:10:35.385Z,23.72
2023-04-06T11:13:06.730Z,24.27
2023-04-06T11:15:38.243Z,24.00
2023-04-06T11:18:07.377Z,24.19
2023-04-06T11:20:35.256Z,25.08
2023-04-06T11:23:04.628Z,25.17
2023-04-06T11:25:33.617Z,25.33
2023-04-06T11:28:01.641Z,25.55
2023-04-06T11:30:31.354Z,25.83
2023-04-06T11:33:03.649Z,26.17
2023-04-06T11:35:34.667Z,26.62
2023-04-06T11:38:05.295Z,25.89
2023-04-06T11:40:34.191Z,26.05
2023-04-06T11:43:01.998Z,25.21
2023-04-06T11:45:41.852Z,25.70
2023-04-06T11:48:20.181Z,26.28
2023-04-06T11:50:48.767Z,26.36
2023-04-06T11:53:16.648Z,25.85
2023-04-06T11:55:47.661Z,25.72
2023-04-06T11:58:16.038Z,25.03
2023-04-06T12:00:47.437Z,25.10
2023-04-06T12:03:16.078Z,25.26
2023-04-06T12:05:43.986Z,24.80
2023-04-06T12:08:11.750Z,24.94
2023-04-06T12:10:39.574Z,24.99
2023-04-06T12:13:07.508Z,24.95
2023-04-06T12:15:35.474Z,25.19
2023-04-06T12:18:04.790Z,25.68
2023-04-06T12:20:33.670Z,25.58
2023-04-06T12:23:01.535Z,25.43
2023-04-06T12:25:30.149Z,25.26
2023-04-06T12:27:58.930Z,25.31
2023-04-06T12:30:26.733Z,25.41
2023-04-06T12:32:54.674Z,25.62
2023-04-06T12:35:23.858Z,25.32
2023-04-06T12:37:51.797Z,25.66
2023-04-06T12:40:19.756Z,25.75
2023-04-06T12:42:47.833Z,25.38
2023-04-06T12:45:15.636Z,25.64
2023-04-06T12:47:43.545Z,25.73
2023-04-06T12:50:11.692Z,25.85
2023-04-06T12:52:40.907Z,25.99
2023-04-06T12:55:09.833Z,26.08
2023-04-06T12:57:38.107Z,25.22
2023-04-06T13:00:09.164Z,24.86
2023-04-06T13:02:37.937Z,25.37
2023-04-06T13:05:06.402Z,25.88
2023-04-06T13:07:34.245Z,25.38
2023-04-06T13:10:03.478Z,25.92
2023-04-06T13:12:31.245Z,25.48
2023-04-06T13:14:59.020Z,25.29
2023-04-06T13:17:29.530Z,25.16
2023-04-06T13:19:57.518Z,25.87
2023-04-06T13:22:25.663Z,26.33
2023-04-06T13:24:53.455Z,27.24
2023-04-06T13:27:22.663Z,26.47
2023-04-06T13:29:50.482Z,25.42
2023-04-06T13:32:18.386Z,26.37
2023-04-06T13:34:46.722Z,26.35
2023-04-06T13:37:15.042Z,25.91
2023-04-06T13:39:42.861Z,25.87
2023-04-06T13:42:11.073Z,25.99
2023-04-06T13:44:40.345Z,26.11
2023-04-06T13:47:08.250Z,25.73
2023-04-06T13:49:36.953Z,25.08
2023-04-06T13:52:04.946Z,25.30
2023-04-06T13:54:32.767Z,25.19
2023-04-06T13:57:01.493Z,25.52
2023-04-06T13:59:34.244Z,26.26
2023-04-06T14:02:03.604Z,25.73
2023-04-06T14:04:32.171Z,26.25
2023-04-06T14:07:00.431Z,25.94
2023-04-06T14:09:28.727Z,26.65
2023-04-06T14:11:57.323Z,26.32
2023-04-06T14:14:25.591Z,25.93
2023-04-06T14:16:53.384Z,25.62
2023-04-06T14:19:22.794Z,25.52
2023-04-06T14:21:50.521Z,25.72
2023-04-06T14:24:20.037Z,25.36
2023-04-06T14:26:47.829Z,25.19
2023-04-06T14:29:16.781Z,26.10
2023-04-06T14:31:44.625Z,26.16
2023-04-06T14:34:12.388Z,26.47
2023-04-06T14:36:41.487Z,25.39
2023-04-06T14:39:10.831Z,25.66
2023-04-06T14:41:38.634Z,26.27
2023-04-06T14:44:07.234Z,25.87
2023-04-06T14:46:35.009Z,25.15
2023-04-06T14:49:02.775Z,24.91
2023-04-06T14:51:30.523Z,25.00
2023-04-06T14:53:59.589Z,24.51
2023-04-06T14:56:27.435Z,24.80
2023-04-06T14:58:55.913Z,26.14
2023-04-06T15:01:23.663Z,24.35
2023-04-06T15:03:51.704Z,24.65
2023-04-06T15:06:21.508Z,24.61
2023-04-06T15:08:50.006Z,25.33
2023-04-06T15:11:19.195Z,24.68
2023-04-06T15:13:47.424Z,24.72
2023-04-06T15:16:16.215Z,24.88
2023-04-06T15:18:43.914Z,25.26
2023-04-06T15:21:12.792Z,24.36
2023-04-06T15:23:49.485Z,24.08
2023-04-06T15:26:17.269Z,25.12
2023-04-06T15:28:46.436Z,24.97
2023-04-06T15:31:32.955Z,25.22
2023-04-06T15:34:04.139Z,25.17
2023-04-06T15:36:31.960Z,25.33
2023-04-06T15:39:00.559Z,24.55
2023-04-06T15:41:28.901Z,24.66
2023-04-06T15:43:58.080Z,25.32
2023-04-06T15:46:28.483Z,26.12
2023-04-06T15:48:57.046Z,26.73
2023-04-06T15:51:25.259Z,26.61
2023-04-06T15:53:52.952Z,26.66
2023-04-06T15:56:20.963Z,26.23
2023-04-06T15:58:49.622Z,25.47
2023-04-06T16:01:20.038Z,24.74
2023-04-06T16:03:48.087Z,24.95
2023-04-06T16:06:16.044Z,25.12
2023-04-06T16:08:44.103Z,25.72
2023-04-06T16:11:12.034Z,25.53
2023-04-06T16:13:43.228Z,25.45
2023-04-06T16:16:12.913Z,25.36
2023-04-06T16:18:42.063Z,25.55
2023-04-06T16:21:09.790Z,26.41
2023-04-06T16:23:37.512Z,26.73
2023-04-06T16:26:12.852Z,26.01
2023-04-06T16:28:40.912Z,26.56
2023-04-06T16:31:08.652Z,26.42
2023-04-06T16:33:36.444Z,26.29
2023-04-06T16:36:05.978Z,26.84
2023-04-06T16:38:35.699Z,25.90
2023-04-06T16:41:03.916Z,25.65
2023-04-06T16:43:32.246Z,25.58
2023-04-06T16:46:00.026Z,25.37
2023-04-06T16:48:27.948Z,25.79
2023-04-06T16:50:56.344Z,26.11
2023-04-06T16:53:25.494Z,26.32
2023-04-06T16:55:53.223Z,25.56
2023-04-06T16:58:20.940Z,25.96
2023-04-06T17:00:48.761Z,25.15
2023-04-06T17:03:16.680Z,25.72
2023-04-06T17:05:45.331Z,25.57
2023-04-06T17:08:13.003Z,26.05
2023-04-06T17:13:14.680Z,25.51
2023-04-06T17:15:43.154Z,24.46
2023-04-06T17:18:11.558Z,23.87
2023-04-06T17:20:39.654Z,23.97
2023-04-06T17:23:07.401Z,23.70
2023-04-06T17:25:35.178Z,24.14
2023-04-06T17:28:04.326Z,24.10
2023-04-06T17:30:32.888Z,23.90
2023-04-06T17:33:00.881Z,24.76
2023-04-06T17:35:28.643Z,24.47
2023-04-06T17:37:56.308Z,24.24
2023-04-06T17:40:24.164Z,24.89
2023-04-06T17:42:51.990Z,24.93
2023-04-06T17:45:21.275Z,23.87
2023-04-06T17:47:49.024Z,23.85
2023-04-06T17:50:16.756Z,24.01
2023-04-06T17:55:13.506Z,24.15
2023-04-06T17:57:43.207Z,23.92
2023-04-06T18:00:12.228Z,24.48
2023-04-06T18:02:41.333Z,23.82
2023-04-06T18:05:09.750Z,23.60
2023-04-06T18:07:37.777Z,23.06
2023-04-06T18:10:06.683Z,23.84
2023-04-06T18:12:34.553Z,24.25
2023-04-06T18:15:02.534Z,24.06
2023-04-06T18:17:30.407Z,23.91
2023-04-06T18:19:59.483Z,23.60
2023-04-06T18:22:27.548Z,23.85
2023-04-06T18:24:55.251Z,23.77
2023-04-06T18:27:23.029Z,23.78
2023-04-06T18:29:50.985Z,23.74
2023-04-06T18:32:18.748Z,23.95
2023-04-06T18:34:46.442Z,22.99
2023-04-06T18:37:16.285Z,23.41
2023-04-06T18:39:44.219Z,23.45
2023-04-06T18:42:11.902Z,22.95
2023-04-06T18:44:39.679Z,23.30
2023-04-06T18:47:07.622Z,23.26
2023-04-06T18:49:35.388Z,23.01
2023-04-06T18:52:04.840Z,23.12
2023-04-06T18:54:33.917Z,23.62
2023-04-06T18:57:02.456Z,23.53
2023-04-06T18:59:31.632Z,22.67
2023-04-06T19:01:59.463Z,23.24
2023-04-06T19:04:29.287Z,22.85
2023-04-06T19:06:57.385Z,22.46
2023-04-06T19:09:25.397Z,22.63
2023-04-06T19:11:54.451Z,22.94
2023-04-06T19:14:22.199Z,23.28
2023-04-06T19:16:52.377Z,23.06
2023-04-06T19:19:21.077Z,23.35
2023-04-06T19:21:49.204Z,22.59
2023-04-06T19:24:16.982Z,22.42
2023-04-06T19:26:44.821Z,22.70
2023-04-06T19:29:15.024Z,23.02
2023-04-06T19:31:42.783Z,23.25
2023-04-06T19:34:11.110Z,23.21
2023-04-06T19:36:38.791Z,22.99
2023-04-06T19:39:06.520Z,22.90
2023-04-06T19:41:34.231Z,23.21
2023-04-06T19:44:01.992Z,23.10
2023-04-06T19:46:31.132Z,23.00
2023-04-06T19:48:59.086Z,22.98
2023-04-06T19:51:26.862Z,23.16
2023-04-06T19:53:54.574Z,23.06
2023-04-06T19:56:22.310Z,23.16
2023-04-06T19:58:50.153Z,23.25
2023-04-06T20:01:17.995Z,23.08
2023-04-06T20:03:47.348Z,22.83
2023-04-06T20:06:15.156Z,22.70
2023-04-06T20:08:43.003Z,22.67
2023-04-06T20:11:11.494Z,22.60
2023-04-06T20:13:39.248Z,22.34
2023-04-06T20:16:07.127Z,22.18
2023-04-06T20:18:35.128Z,22.35
2023-04-06T20:21:04.287Z,22.35
2023-04-06T20:23:34.839Z,22.08
2023-04-06T20:26:02.600Z,22.09
2023-04-06T20:28:30.341Z,22.29
2023-04-06T20:30:58.090Z,22.44
2023-04-06T20:33:25.814Z,22.39
2023-04-06T20:35:58.319Z,22.13
2023-04-06T20:38:33.271Z,21.88
2023-04-06T20:41:01.850Z,22.15
2023-04-06T20:43:30.231Z,22.23
2023-04-06T20:45:59.324Z,21.98
2023-04-06T20:48:27.349Z,21.30
2023-04-06T20:50:55.738Z,21.16
2023-04-06T20:53:23.793Z,21.54
2023-04-06T20:55:53.030Z,21.31
2023-04-06T20:58:21.004Z,21.15
2023-04-06T21:00:49.777Z,21.39
2023-04-06T21:03:18.068Z,21.34
2023-04-06T21:05:51.577Z,21.16
2023-04-06T21:08:19.437Z,21.17
2023-04-06T21:10:47.242Z,21.40
2023-04-06T21:13:16.732Z,21.07
2023-04-06T21:15:44.585Z,21.21
2023-04-06T21:18:12.680Z,21.35
2023-04-06T21:20:40.570Z,21.35
2023-04-06T21:23:08.289Z,21.60
2023-04-06T21:25:37.897Z,21.76
2023-04-06T21:28:06.058Z,21.75
2023-04-06T21:30:37.075Z,21.79
2023-04-06T21:33:04.979Z,21.67
2023-04-06T21:35:32.751Z,21.76
2023-04-06T21:38:00.628Z,21.57
2023-04-06T21:40:28.392Z,21.54
2023-04-06T21:42:56.164Z,21.48
2023-04-06T21:45:23.854Z,21.18
2023-04-06T21:47:52.982Z,21.29
2023-04-06T21:50:21.138Z,21.19
2023-04-06T21:52:49.337Z,21.26
2023-04-06T21:55:17.124Z,21.24
2023-04-06T21:57:45.354Z,21.34
2023-04-06T22:00:15.078Z,21.20
2023-04-06T22:02:43.190Z,21.06
2023-04-06T22:05:12.872Z,21.03
2023-04-06T22:07:40.760Z,21.11
2023-04-06T22:10:09.400Z,21.00
2023-04-06T22:12:37.206Z,21.02
2023-04-06T22:15:05.613Z,20.79
2023-04-06T22:17:33.447Z,20.88
2023-04-06T22:20:01.221Z,20.93
2023-04-06T22:22:30.314Z,20.61
2023-04-06T22:24:58.495Z,20.56
2023-04-06T22:27:26.345Z,20.68
2023-04-06T22:29:54.295Z,20.75
2023-04-06T22:32:22.071Z,20.54
2023-04-06T22:34:49.900Z,20.80
2023-04-06T22:37:17.627Z,20.73
2023-04-06T22:39:46.723Z,20.92
2023-04-06T22:42:14.476Z,20.91
2023-04-06T22:44:42.180Z,20.94
2023-04-06T22:47:09.962Z,20.94
2023-04-06T22:49:37.697Z,21.06
2023-04-06T22:52:05.421Z,21.15
2023-04-06T22:54:33.194Z,21.08
2023-04-06T22:57:02.968Z,21.04
2023-04-06T22:59:30.681Z,21.25
2023-04-06T23:01:58.510Z,21.15
2023-04-06T23:04:26.638Z,21.05
2023-04-06T23:06:54.569Z,20.44
2023-04-06T23:09:22.734Z,20.46
2023-04-06T23:11:50.446Z,20.31
2023-04-06T23:14:19.590Z,20.01
2023-04-06T23:16:47.336Z,19.84
2023-04-06T23:19:15.125Z,19.87
2023-04-06T23:21:42.986Z,19.91
2023-04-06T23:24:11.092Z,20.23
2023-04-06T23:26:38.784Z,20.30
2023-04-06T23:29:06.619Z,20.09
2023-04-06T23:31:35.854Z,20.00
2023-04-06T23:34:03.871Z,19.99
2023-04-06T23:36:32.895Z,19.91
2023-04-06T23:39:00.628Z,19.88
2023-04-06T23:41:28.311Z,19.72
2023-04-06T23:43:56.607Z,19.69
2023-04-06T23:46:24.612Z,19.52
2023-04-06T23:48:53.736Z,19.67
2023-04-06T23:51:21.584Z,19.64
2023-04-06T23:53:49.245Z,19.52
2023-04-06T23:56:16.914Z,19.52
2023-04-06T23:58:44.614Z,19.68
